< Typhoon 201825 2018 Season Typhoon 201827 >
Typhoon 201826 (YUTU)
General InformationTrack Information on Google MapsDetailed Wind InformationForecast History on Google MapsAccess Analytics MapList of All Images || NewsDisaster Info.WeblogTrackbackTyphoon FrontTwiphoonTyphoon Now!Typhoon ImaginationJMA Disaster Info. XMLResourceGoogle EarthGE AnimationAtom FeedGeoJSON
Detalied Best Track (Time Zone = UTC)
Year Month Day Hour Lat. Long. Pressure (hPa) Wind (kt) Class Image Chart
2018 10 20 18 8.4 160.7 1008 0 2 Image Chart
2018 10 21 00 8.5 159.9 1008 0 2 Image Chart
2018 10 21 06 8.6 158.9 1004 0 2 Image Chart
2018 10 21 12 8.7 158.0 1006 0 2 Image Chart
2018 10 21 18 8.9 157.1 1004 0 2 Image Chart
2018 10 22 00 9.4 156.1 1002 35 3 Image Chart
2018 10 22 06 10.2 155.2 996 40 3 Image Chart
2018 10 22 12 10.9 154.0 992 45 3 Image Chart
2018 10 22 18 11.3 152.8 990 50 4 Image Chart
2018 10 23 00 11.6 151.8 975 65 5 Image Chart
2018 10 23 06 11.9 150.6 970 70 5 Image Chart
2018 10 23 12 12.2 149.7 955 80 5 Image Chart
2018 10 23 18 12.7 148.9 950 85 5 Image Chart
2018 10 24 00 13.4 148.0 925 100 5 Image Chart
2018 10 24 06 14.0 147.1 915 105 5 Image Chart
2018 10 24 12 14.7 146.2 900 115 5 Image Chart
2018 10 24 18 15.4 145.3 900 115 5 Image Chart
2018 10 25 00 15.8 144.1 900 115 5 Image Chart
2018 10 25 06 16.1 143.1 915 105 5 Image Chart
2018 10 25 12 16.3 142.3 935 95 5 Image Chart
2018 10 25 18 16.6 141.4 935 95 5 Image Chart
2018 10 26 00 16.9 140.3 935 95 5 Image Chart
2018 10 26 06 17.0 139.1 925 100 5 Image Chart
2018 10 26 12 17.3 137.6 925 100 5 Image Chart
2018 10 26 18 17.6 136.1 915 105 5 Image Chart
2018 10 27 00 17.8 134.7 915 105 5 Image Chart
2018 10 27 06 18.0 133.3 915 105 5 Image Chart
2018 10 27 12 18.0 132.2 915 105 5 Image Chart
2018 10 27 18 18.0 131.2 925 100 5 Image Chart
2018 10 28 00 18.0 130.2 935 95 5 Image Chart
2018 10 28 06 18.0 129.0 950 85 5 Image Chart
2018 10 28 12 17.8 128.0 955 80 5 Image Chart
2018 10 28 18 17.5 127.0 970 70 5 Image Chart
2018 10 29 00 17.0 126.1 970 70 5 Image Chart
2018 10 29 06 16.8 125.2 955 80 5 Image Chart
2018 10 29 12 16.8 124.2 955 80 5 Image Chart
2018 10 29 18 16.8 123.0 955 80 5 Image Chart
2018 10 30 00 16.6 121.6 970 70 5 Image Chart
2018 10 30 06 16.5 120.1 985 55 4 Image Chart
2018 10 30 12 16.9 119.1 985 55 4 Image Chart
2018 10 30 18 17.1 118.6 990 50 4 Image Chart
2018 10 31 00 17.5 118.2 990 50 4 Image Chart
2018 10 31 06 18.1 117.7 992 45 3 Image Chart
2018 10 31 12 18.6 117.4 992 45 3 Image Chart
2018 10 31 18 19.0 117.2 992 45 3 Image Chart
2018 11 1 00 19.5 116.9 994 45 3 Image Chart
2018 11 1 06 19.9 116.8 994 45 3 Image Chart
2018 11 1 12 20.2 116.8 994 45 3 Image Chart
2018 11 1 18 20.6 116.8 1000 40 3 Image Chart
2018 11 2 00 20.7 116.4 1008 35 3 Image Chart
2018 11 2 06 20.7 116.1 1008 0 2 Image Chart
2018 11 2 12 20.5 116.0 1012 0 2 Image Chart
2018 11 2 18 20.2 115.9 1012 0 2 Image Chart
2018 11 3 00 19.9 115.7 1014 0 2 Image Chart
Japan Meteorological Agency Best Track Data | Correction Date : 2018-12-04
< Typhoon 201825 2018 Season Typhoon 201827 >

Help